sensor_id;sensor_type;location;lat;lon;timestamp;temperature;humidity
3136;DHT22;1578;47.658;9.922;2024-02-16T00:00:24;3.90;51.00
3136;DHT22;1578;47.658;9.922;2024-02-16T00:02:50;4.00;51.40
3136;DHT22;1578;47.658;9.922;2024-02-16T00:05:16;4.10;51.70
3136;DHT22;1578;47.658;9.922;2024-02-16T00:07:42;4.20;51.10
3136;DHT22;1578;47.658;9.922;2024-02-16T00:10:08;4.30;50.80
3136;DHT22;1578;47.658;9.922;2024-02-16T00:12:43;4.30;50.60
3136;DHT22;1578;47.658;9.922;2024-02-16T00:15:09;4.40;49.90
3136;DHT22;1578;47.658;9.922;2024-02-16T00:17:36;4.30;50.20
3136;DHT22;1578;47.658;9.922;2024-02-16T00:20:03;4.40;50.40
3136;DHT22;1578;47.658;9.922;2024-02-16T00:22:28;4.30;50.20
3136;DHT22;1578;47.658;9.922;2024-02-16T00:24:54;4.30;50.30
3136;DHT22;1578;47.658;9.922;2024-02-16T00:27:20;4.30;50.70
3136;DHT22;1578;47.658;9.922;2024-02-16T00:29:45;4.40;50.70
3136;DHT22;1578;47.658;9.922;2024-02-16T00:32:14;4.50;50.10
3136;DHT22;1578;47.658;9.922;2024-02-16T00:34:40;4.50;49.70
3136;DHT22;1578;47.658;9.922;2024-02-16T00:37:07;4.50;50.10
3136;DHT22;1578;47.658;9.922;2024-02-16T00:39:37;4.50;49.90
3136;DHT22;1578;47.658;9.922;2024-02-16T00:42:05;4.50;50.10
3136;DHT22;1578;47.658;9.922;2024-02-16T00:44:31;4.50;50.70
3136;DHT22;1578;47.658;9.922;2024-02-16T00:46:57;4.60;51.00
3136;DHT22;1578;47.658;9.922;2024-02-16T00:49:23;4.70;50.50
3136;DHT22;1578;47.658;9.922;2024-02-16T00:51:49;4.70;50.00
3136;DHT22;1578;47.658;9.922;2024-02-16T00:54:17;4.70;49.50
3136;DHT22;1578;47.658;9.922;2024-02-16T00:56:42;4.60;49.90
3136;DHT22;1578;47.658;9.922;2024-02-16T00:59:08;4.60;49.70
3136;DHT22;1578;47.658;9.922;2024-02-16T01:01:35;4.60;49.40
3136;DHT22;1578;47.658;9.922;2024-02-16T01:04:02;4.60;49.00
3136;DHT22;1578;47.658;9.922;2024-02-16T01:06:28;4.60;49.00
3136;DHT22;1578;47.658;9.922;2024-02-16T01:08:53;4.60;49.70
3136;DHT22;1578;47.658;9.922;2024-02-16T01:11:19;4.60;50.10
3136;DHT22;1578;47.658;9.922;2024-02-16T01:13:46;4.70;49.50
3136;DHT22;1578;47.658;9.922;2024-02-16T01:16:11;4.70;50.00
3136;DHT22;1578;47.658;9.922;2024-02-16T01:18:37;4.80;49.70
3136;DHT22;1578;47.658;9.922;2024-02-16T01:21:03;4.80;49.50
3136;DHT22;1578;47.658;9.922;2024-02-16T01:23:29;4.80;49.50
3136;DHT22;1578;47.658;9.922;2024-02-16T01:25:55;4.90;49.40
3136;DHT22;1578;47.658;9.922;2024-02-16T01:28:20;4.90;48.60
3136;DHT22;1578;47.658;9.922;2024-02-16T01:30:46;4.90;48.90
3136;DHT22;1578;47.658;9.922;2024-02-16T01:33:11;4.90;48.80
3136;DHT22;1578;47.658;9.922;2024-02-16T01:35:38;4.90;48.80
3136;DHT22;1578;47.658;9.922;2024-02-16T01:38:04;4.80;48.60
3136;DHT22;1578;47.658;9.922;2024-02-16T01:40:31;4.90;48.90
3136;DHT22;1578;47.658;9.922;2024-02-16T01:42:57;4.90;48.80
3136;DHT22;1578;47.658;9.922;2024-02-16T01:45:23;4.90;48.50
3136;DHT22;1578;47.658;9.922;2024-02-16T01:47:53;4.90;48.20
3136;DHT22;1578;47.658;9.922;2024-02-16T01:50:19;4.90;48.30
3136;DHT22;1578;47.658;9.922;2024-02-16T01:52:46;4.90;48.60
3136;DHT22;1578;47.658;9.922;2024-02-16T01:55:12;4.90;48.00
3136;DHT22;1578;47.658;9.922;2024-02-16T01:57:46;4.70;47.70
3136;DHT22;1578;47.658;9.922;2024-02-16T02:00:13;4.50;49.90
3136;DHT22;1578;47.658;9.922;2024-02-16T02:02:45;4.50;50.80
3136;DHT22;1578;47.658;9.922;2024-02-16T02:05:11;4.40;51.30
3136;DHT22;1578;47.658;9.922;2024-02-16T02:07:37;4.40;52.10
3136;DHT22;1578;47.658;9.922;2024-02-16T02:10:03;4.40;52.10
3136;DHT22;1578;47.658;9.922;2024-02-16T02:12:29;4.50;52.20
3136;DHT22;1578;47.658;9.922;2024-02-16T02:14:55;4.50;52.20
3136;DHT22;1578;47.658;9.922;2024-02-16T02:17:20;4.50;51.50
3136;DHT22;1578;47.658;9.922;2024-02-16T02:19:46;4.50;52.00
3136;DHT22;1578;47.658;9.922;2024-02-16T02:22:15;4.40;52.10
3136;DHT22;1578;47.658;9.922;2024-02-16T02:24:41;4.50;53.10
3136;DHT22;1578;47.658;9.922;2024-02-16T02:27:06;4.50;52.60
3136;DHT22;1578;47.658;9.922;2024-02-16T02:29:32;4.50;52.20
3136;DHT22;1578;47.658;9.922;2024-02-16T02:31:59;4.60;52.30
3136;DHT22;1578;47.658;9.922;2024-02-16T02:34:24;4.50;52.60
3136;DHT22;1578;47.658;9.922;2024-02-16T02:36:50;4.70;52.40
3136;DHT22;1578;47.658;9.922;2024-02-16T02:39:15;4.70;52.10
3136;DHT22;1578;47.658;9.922;2024-02-16T02:41:41;4.80;51.20
3136;DHT22;1578;47.658;9.922;2024-02-16T02:44:07;4.70;51.20
3136;DHT22;1578;47.658;9.922;2024-02-16T02:46:32;4.80;51.30
3136;DHT22;1578;47.658;9.922;2024-02-16T02:48:58;4.80;50.60
3136;DHT22;1578;47.658;9.922;2024-02-16T02:51:23;4.90;50.10
3136;DHT22;1578;47.658;9.922;2024-02-16T02:53:49;5.00;49.50
3136;DHT22;1578;47.658;9.922;2024-02-16T02:56:14;5.00;49.00
3136;DHT22;1578;47.658;9.922;2024-02-16T02:58:40;5.00;48.40
3136;DHT22;1578;47.658;9.922;2024-02-16T03:01:06;4.90;49.10
3136;DHT22;1578;47.658;9.922;2024-02-16T03:03:33;4.90;49.20
3136;DHT22;1578;47.658;9.922;2024-02-16T03:05:59;5.00;49.20
3136;DHT22;1578;47.658;9.922;2024-02-16T03:08:25;4.80;48.80
3136;DHT22;1578;47.658;9.922;2024-02-16T03:10:51;4.90;49.50
3136;DHT22;1578;47.658;9.922;2024-02-16T03:13:17;5.10;49.10
3136;DHT22;1578;47.658;9.922;2024-02-16T03:15:44;5.10;48.10
3136;DHT22;1578;47.658;9.922;2024-02-16T03:18:10;5.10;47.90
3136;DHT22;1578;47.658;9.922;2024-02-16T03:20:36;5.10;48.10
3136;DHT22;1578;47.658;9.922;2024-02-16T03:23:02;5.00;47.60
3136;DHT22;1578;47.658;9.922;2024-02-16T03:25:28;5.10;48.20
3136;DHT22;1578;47.658;9.922;2024-02-16T03:27:54;5.10;47.60
3136;DHT22;1578;47.658;9.922;2024-02-16T03:30:20;5.20;47.20
3136;DHT22;1578;47.658;9.922;2024-02-16T03:32:51;5.20;46.50
3136;DHT22;1578;47.658;9.922;2024-02-16T03:35:20;5.20;46.30
3136;DHT22;1578;47.658;9.922;2024-02-16T03:37:45;5.10;46.70
3136;DHT22;1578;47.658;9.922;2024-02-16T03:40:12;5.10;46.50
3136;DHT22;1578;47.658;9.922;2024-02-16T03:42:39;5.10;46.50
3136;DHT22;1578;47.658;9.922;2024-02-16T03:45:05;5.10;46.30
3136;DHT22;1578;47.658;9.922;2024-02-16T03:47:31;4.90;46.50
3136;DHT22;1578;47.658;9.922;2024-02-16T03:49:57;4.90;46.40
3136;DHT22;1578;47.658;9.922;2024-02-16T03:52:23;4.90;46.30
3136;DHT22;1578;47.658;9.922;2024-02-16T03:54:51;4.90;46.00
3136;DHT22;1578;47.658;9.922;2024-02-16T03:57:17;4.90;46.30
3136;DHT22;1578;47.658;9.922;2024-02-16T03:59:45;4.80;47.20
3136;DHT22;1578;47.658;9.922;2024-02-16T04:02:12;4.80;47.80
3136;DHT22;1578;47.658;9.922;2024-02-16T04:04:39;4.90;48.00
3136;DHT22;1578;47.658;9.922;2024-02-16T04:07:07;4.80;47.80
3136;DHT22;1578;47.658;9.922;2024-02-16T04:09:36;4.80;47.90
3136;DHT22;1578;47.658;9.922;2024-02-16T04:12:01;4.80;48.90
3136;DHT22;1578;47.658;9.922;2024-02-16T04:14:29;4.90;47.90
3136;DHT22;1578;47.658;9.922;2024-02-16T04:16:55;5.00;48.00
3136;DHT22;1578;47.658;9.922;2024-02-16T04:19:25;4.90;47.90
3136;DHT22;1578;47.658;9.922;2024-02-16T04:21:50;4.90;47.40
3136;DHT22;1578;47.658;9.922;2024-02-16T04:24:16;4.90;48.00
3136;DHT22;1578;47.658;9.922;2024-02-16T04:26:42;4.90;47.90
3136;DHT22;1578;47.658;9.922;2024-02-16T04:29:07;4.80;47.80
3136;DHT22;1578;47.658;9.922;2024-02-16T04:31:33;4.80;48.40
3136;DHT22;1578;47.658;9.922;2024-02-16T04:33:59;4.80;48.70
3136;DHT22;1578;47.658;9.922;2024-02-16T04:36:25;4.80;48.20
3136;DHT22;1578;47.658;9.922;2024-02-16T04:38:50;4.80;47.90
3136;DHT22;1578;47.658;9.922;2024-02-16T04:41:16;4.80;47.80
3136;DHT22;1578;47.658;9.922;2024-02-16T04:43:42;4.70;48.00
3136;DHT22;1578;47.658;9.922;2024-02-16T04:46:13;4.70;47.80
3136;DHT22;1578;47.658;9.922;2024-02-16T04:48:38;4.60;47.70
3136;DHT22;1578;47.658;9.922;2024-02-16T04:51:04;4.50;47.60
3136;DHT22;1578;47.658;9.922;2024-02-16T04:53:29;4.50;47.60
3136;DHT22;1578;47.658;9.922;2024-02-16T04:55:55;4.40;47.50
3136;DHT22;1578;47.658;9.922;2024-02-16T04:58:20;4.40;47.50
3136;DHT22;1578;47.658;9.922;2024-02-16T05:00:47;4.40;47.40
3136;DHT22;1578;47.658;9.922;2024-02-16T05:03:13;4.30;47.80
3136;DHT22;1578;47.658;9.922;2024-02-16T05:05:38;4.30;47.90
3136;DHT22;1578;47.658;9.922;2024-02-16T05:08:04;4.20;48.70
3136;DHT22;1578;47.658;9.922;2024-02-16T05:10:30;4.30;49.10
3136;DHT22;1578;47.658;9.922;2024-02-16T05:12:56;4.10;49.30
3136;DHT22;1578;47.658;9.922;2024-02-16T05:15:23;4.10;49.00
3136;DHT22;1578;47.658;9.922;2024-02-16T05:17:49;4.00;49.10
3136;DHT22;1578;47.658;9.922;2024-02-16T05:20:16;4.00;50.00
3136;DHT22;1578;47.658;9.922;2024-02-16T05:22:43;4.10;50.50
3136;DHT22;1578;47.658;9.922;2024-02-16T05:25:09;4.00;49.80
3136;DHT22;1578;47.658;9.922;2024-02-16T05:27:36;4.00;49.40
3136;DHT22;1578;47.658;9.922;2024-02-16T05:30:04;3.90;48.40
3136;DHT22;1578;47.658;9.922;2024-02-16T05:32:36;3.90;49.30
3136;DHT22;1578;47.658;9.922;2024-02-16T05:35:03;3.90;49.20
3136;DHT22;1578;47.658;9.922;2024-02-16T05:37:45;3.80;49.00
3136;DHT22;1578;47.658;9.922;2024-02-16T05:40:17;3.80;48.90
3136;DHT22;1578;47.658;9.922;2024-02-16T05:42:58;3.80;48.70
3136;DHT22;1578;47.658;9.922;2024-02-16T05:45:24;3.70;49.10
3136;DHT22;1578;47.658;9.922;2024-02-16T05:47:50;3.60;48.50
3136;DHT22;1578;47.658;9.922;2024-02-16T05:50:17;3.50;49.20
3136;DHT22;1578;47.658;9.922;2024-02-16T05:52:43;3.60;49.40
3136;DHT22;1578;47.658;9.922;2024-02-16T05:55:10;3.60;49.60
3136;DHT22;1578;47.658;9.922;2024-02-16T05:57:37;3.60;49.60
3136;DHT22;1578;47.658;9.922;2024-02-16T06:00:06;3.50;48.30
3136;DHT22;1578;47.658;9.922;2024-02-16T06:02:33;3.30;48.10
3136;DHT22;1578;47.658;9.922;2024-02-16T06:05:02;3.20;48.60
3136;DHT22;1578;47.658;9.922;2024-02-16T06:07:28;3.10;49.60
3136;DHT22;1578;47.658;9.922;2024-02-16T06:09:55;3.00;49.70
3136;DHT22;1578;47.658;9.922;2024-02-16T06:12:21;3.00;50.90
3136;DHT22;1578;47.658;9.922;2024-02-16T06:14:47;3.10;51.30
3136;DHT22;1578;47.658;9.922;2024-02-16T06:17:14;3.10;51.00
3136;DHT22;1578;47.658;9.922;2024-02-16T06:19:43;3.10;50.20
3136;DHT22;1578;47.658;9.922;2024-02-16T06:22:09;3.00;50.90
3136;DHT22;1578;47.658;9.922;2024-02-16T06:24:35;3.00;50.60
3136;DHT22;1578;47.658;9.922;2024-02-16T06:27:01;3.00;50.90
3136;DHT22;1578;47.658;9.922;2024-02-16T06:29:27;3.00;50.90
3136;DHT22;1578;47.658;9.922;2024-02-16T06:31:53;3.00;50.80
3136;DHT22;1578;47.658;9.922;2024-02-16T06:34:19;3.00;50.40
3136;DHT22;1578;47.658;9.922;2024-02-16T06:36:45;3.00;50.20
3136;DHT22;1578;47.658;9.922;2024-02-16T06:39:11;3.00;50.90
3136;DHT22;1578;47.658;9.922;2024-02-16T06:41:42;3.00;50.90
3136;DHT22;1578;47.658;9.922;2024-02-16T06:44:09;3.00;50.90
3136;DHT22;1578;47.658;9.922;2024-02-16T06:46:35;3.00;50.90
3136;DHT22;1578;47.658;9.922;2024-02-16T06:49:01;3.00;50.90
3136;DHT22;1578;47.658;9.922;2024-02-16T06:51:26;3.00;50.90
3136;DHT22;1578;47.658;9.922;2024-02-16T06:53:54;3.00;50.90
3136;DHT22;1578;47.658;9.922;2024-02-16T06:56:20;3.10;51.00
3136;DHT22;1578;47.658;9.922;2024-02-16T06:58:46;3.10;51.50
3136;DHT22;1578;47.658;9.922;2024-02-16T07:01:13;3.10;51.00
3136;DHT22;1578;47.658;9.922;2024-02-16T07:03:38;3.10;52.40
3136;DHT22;1578;47.658;9.922;2024-02-16T07:06:05;3.10;53.00
3136;DHT22;1578;47.658;9.922;2024-02-16T07:08:37;3.20;53.60
3136;DHT22;1578;47.658;9.922;2024-02-16T07:11:04;3.20;54.00
3136;DHT22;1578;47.658;9.922;2024-02-16T07:13:31;3.30;54.20
3136;DHT22;1578;47.658;9.922;2024-02-16T07:15:56;3.30;54.60
3136;DHT22;1578;47.658;9.922;2024-02-16T07:18:22;3.40;54.60
3136;DHT22;1578;47.658;9.922;2024-02-16T07:20:48;3.50;54.40
3136;DHT22;1578;47.658;9.922;2024-02-16T07:23:14;3.70;54.60
3136;DHT22;1578;47.658;9.922;2024-02-16T07:25:41;3.60;53.70
3136;DHT22;1578;47.658;9.922;2024-02-16T07:28:07;3.70;56.30
3136;DHT22;1578;47.658;9.922;2024-02-16T07:30:34;3.90;56.40
3136;DHT22;1578;47.658;9.922;2024-02-16T07:32:59;4.10;57.40
3136;DHT22;1578;47.658;9.922;2024-02-16T07:35:25;4.40;56.10
3136;DHT22;1578;47.658;9.922;2024-02-16T07:37:51;4.50;55.70
3136;DHT22;1578;47.658;9.922;2024-02-16T07:40:22;4.60;54.00
3136;DHT22;1578;47.658;9.922;2024-02-16T07:42:48;4.70;52.40
3136;DHT22;1578;47.658;9.922;2024-02-16T07:45:13;4.90;51.50
3136;DHT22;1578;47.658;9.922;2024-02-16T07:47:43;5.00;49.90
3136;DHT22;1578;47.658;9.922;2024-02-16T07:50:09;5.10;49.70
3136;DHT22;1578;47.658;9.922;2024-02-16T07:52:35;5.20;48.50
3136;DHT22;1578;47.658;9.922;2024-02-16T07:55:01;5.40;47.10
3136;DHT22;1578;47.658;9.922;2024-02-16T07:57:26;5.50;47.60
3136;DHT22;1578;47.658;9.922;2024-02-16T07:59:52;5.60;46.90
3136;DHT22;1578;47.658;9.922;2024-02-16T08:02:18;5.60;47.00
3136;DHT22;1578;47.658;9.922;2024-02-16T08:04:48;5.80;47.10
3136;DHT22;1578;47.658;9.922;2024-02-16T08:07:15;5.90;47.80
3136;DHT22;1578;47.658;9.922;2024-02-16T08:09:46;6.10;46.80
3136;DHT22;1578;47.658;9.922;2024-02-16T08:12:12;6.40;41.70
3136;DHT22;1578;47.658;9.922;2024-02-16T08:14:41;6.50;40.30
3136;DHT22;1578;47.658;9.922;2024-02-16T08:17:07;6.60;41.30
3136;DHT22;1578;47.658;9.922;2024-02-16T08:19:34;6.70;41.40
3136;DHT22;1578;47.658;9.922;2024-02-16T08:22:01;6.80;41.50
3136;DHT22;1578;47.658;9.922;2024-02-16T08:24:27;6.80;42.70
3136;DHT22;1578;47.658;9.922;2024-02-16T08:26:53;7.00;42.60
3136;DHT22;1578;47.658;9.922;2024-02-16T08:29:18;7.10;42.10
3136;DHT22;1578;47.658;9.922;2024-02-16T08:31:49;7.20;41.50
3136;DHT22;1578;47.658;9.922;2024-02-16T08:34:14;7.40;38.80
3136;DHT22;1578;47.658;9.922;2024-02-16T08:36:44;7.50;40.70
3136;DHT22;1578;47.658;9.922;2024-02-16T08:39:10;7.70;40.90
3136;DHT22;1578;47.658;9.922;2024-02-16T08:41:37;7.80;40.90
3136;DHT22;1578;47.658;9.922;2024-02-16T08:44:03;8.00;41.10
3136;DHT22;1578;47.658;9.922;2024-02-16T08:46:29;8.20;40.60
3136;DHT22;1578;47.658;9.922;2024-02-16T08:48:55;8.50;39.90
3136;DHT22;1578;47.658;9.922;2024-02-16T08:51:21;8.80;34.00
3136;DHT22;1578;47.658;9.922;2024-02-16T08:53:47;8.90;32.80
3136;DHT22;1578;47.658;9.922;2024-02-16T08:56:12;9.10;33.40
3136;DHT22;1578;47.658;9.922;2024-02-16T08:58:38;9.20;33.80
3136;DHT22;1578;47.658;9.922;2024-02-16T09:01:05;9.40;33.70
3136;DHT22;1578;47.658;9.922;2024-02-16T09:03:30;9.50;35.10
3136;DHT22;1578;47.658;9.922;2024-02-16T09:06:02;9.70;35.30
3136;DHT22;1578;47.658;9.922;2024-02-16T09:08:32;9.90;35.70
3136;DHT22;1578;47.658;9.922;2024-02-16T09:11:03;10.10;33.90
3136;DHT22;1578;47.658;9.922;2024-02-16T09:13:35;10.30;32.40
3136;DHT22;1578;47.658;9.922;2024-02-16T09:16:02;10.50;32.70
3136;DHT22;1578;47.658;9.922;2024-02-16T09:18:29;10.70;30.20
3136;DHT22;1578;47.658;9.922;2024-02-16T09:20:55;10.90;29.00
3136;DHT22;1578;47.658;9.922;2024-02-16T09:23:20;11.10;30.70
3136;DHT22;1578;47.658;9.922;2024-02-16T09:25:46;11.30;28.80
3136;DHT22;1578;47.658;9.922;2024-02-16T09:28:12;11.40;27.50
3136;DHT22;1578;47.658;9.922;2024-02-16T09:30:38;11.60;28.10
3136;DHT22;1578;47.658;9.922;2024-02-16T09:33:06;11.80;28.20
3136;DHT22;1578;47.658;9.922;2024-02-16T09:35:32;12.00;24.60
3136;DHT22;1578;47.658;9.922;2024-02-16T09:37:58;12.10;24.70
3136;DHT22;1578;47.658;9.922;2024-02-16T09:40:24;12.30;24.10
3136;DHT22;1578;47.658;9.922;2024-02-16T09:42:50;12.30;23.10
3136;DHT22;1578;47.658;9.922;2024-02-16T09:45:16;12.50;23.00
3136;DHT22;1578;47.658;9.922;2024-02-16T09:47:43;12.60;24.00
3136;DHT22;1578;47.658;9.922;2024-02-16T09:50:14;12.70;22.70
3136;DHT22;1578;47.658;9.922;2024-02-16T09:52:41;12.70;23.10
3136;DHT22;1578;47.658;9.922;2024-02-16T09:55:12;12.70;22.00
3136;DHT22;1578;47.658;9.922;2024-02-16T09:57:38;12.70;22.00
3136;DHT22;1578;47.658;9.922;2024-02-16T10:00:04;12.60;20.10
3136;DHT22;1578;47.658;9.922;2024-02-16T10:02:43;12.60;19.40
3136;DHT22;1578;47.658;9.922;2024-02-16T10:05:20;12.60;20.60
3136;DHT22;1578;47.658;9.922;2024-02-16T10:07:46;12.50;21.50
3136;DHT22;1578;47.658;9.922;2024-02-16T10:12:50;13.20;22.00
3136;DHT22;1578;47.658;9.922;2024-02-16T10:15:20;13.50;22.10
3136;DHT22;1578;47.658;9.922;2024-02-16T10:18:06;13.80;22.20
3136;DHT22;1578;47.658;9.922;2024-02-16T10:20:34;14.20;21.20
3136;DHT22;1578;47.658;9.922;2024-02-16T10:23:09;14.50;16.30
3136;DHT22;1578;47.658;9.922;2024-02-16T10:25:36;14.70;15.60
3136;DHT22;1578;47.658;9.922;2024-02-16T10:28:07;14.90;17.00
3136;DHT22;1578;47.658;9.922;2024-02-16T10:30:38;14.90;16.50
3136;DHT22;1578;47.658;9.922;2024-02-16T10:33:07;15.00;14.00
3136;DHT22;1578;47.658;9.922;2024-02-16T10:35:36;15.10;12.40
3136;DHT22;1578;47.658;9.922;2024-02-16T10:38:04;15.20;13.00
3136;DHT22;1578;47.658;9.922;2024-02-16T10:40:37;15.50;12.90
3136;DHT22;1578;47.658;9.922;2024-02-16T10:43:04;15.80;14.30
3136;DHT22;1578;47.658;9.922;2024-02-16T10:45:40;16.00;11.40
3136;DHT22;1578;47.658;9.922;2024-02-16T10:48:07;16.20;11.20
3136;DHT22;1578;47.658;9.922;2024-02-16T10:50:41;16.30;10.60
3136;DHT22;1578;47.658;9.922;2024-02-16T10:53:25;16.50;9.80
3136;DHT22;1578;47.658;9.922;2024-02-16T10:55:51;16.60;10.20
3136;DHT22;1578;47.658;9.922;2024-02-16T10:58:18;16.60;7.60
3136;DHT22;1578;47.658;9.922;2024-02-16T11:00:54;16.70;7.80
3136;DHT22;1578;47.658;9.922;2024-02-16T11:03:25;16.40;5.70
3136;DHT22;1578;47.658;9.922;2024-02-16T11:05:51;16.30;8.30
3136;DHT22;1578;47.658;9.922;2024-02-16T11:08:19;16.00;7.30
3136;DHT22;1578;47.658;9.922;2024-02-16T11:10:59;15.70;9.70
3136;DHT22;1578;47.658;9.922;2024-02-16T11:13:25;15.20;7.30
3136;DHT22;1578;47.658;9.922;2024-02-16T11:15:59;14.80;8.80
3136;DHT22;1578;47.658;9.922;2024-02-16T11:18:46;14.50;11.10
3136;DHT22;1578;47.658;9.922;2024-02-16T11:21:33;14.60;9.40
3136;DHT22;1578;47.658;9.922;2024-02-16T11:24:06;14.50;8.90
3136;DHT22;1578;47.658;9.922;2024-02-16T11:26:42;14.40;10.90
3136;DHT22;1578;47.658;9.922;2024-02-16T11:29:09;14.40;9.60
3136;DHT22;1578;47.658;9.922;2024-02-16T11:31:35;14.50;11.10
3136;DHT22;1578;47.658;9.922;2024-02-16T11:34:01;14.60;9.10
3136;DHT22;1578;47.658;9.922;2024-02-16T11:36:27;14.60;11.80
3136;DHT22;1578;47.658;9.922;2024-02-16T11:38:52;14.80;10.30
3136;DHT22;1578;47.658;9.922;2024-02-16T11:41:18;14.90;9.40
3136;DHT22;1578;47.658;9.922;2024-02-16T11:43:46;15.00;8.70
3136;DHT22;1578;47.658;9.922;2024-02-16T11:46:13;15.10;9.60
3136;DHT22;1578;47.658;9.922;2024-02-16T11:48:39;15.10;9.30
3136;DHT22;1578;47.658;9.922;2024-02-16T11:51:07;15.10;5.70
3136;DHT22;1578;47.658;9.922;2024-02-16T11:53:33;14.90;6.10
3136;DHT22;1578;47.658;9.922;2024-02-16T11:56:01;14.80;6.20
3136;DHT22;1578;47.658;9.922;2024-02-16T11:58:27;14.80;7.30
3136;DHT22;1578;47.658;9.922;2024-02-16T12:00:55;15.00;5.80
3136;DHT22;1578;47.658;9.922;2024-02-16T12:03:25;15.00;6.30
3136;DHT22;1578;47.658;9.922;2024-02-16T12:05:57;14.90;7.70
3136;DHT22;1578;47.658;9.922;2024-02-16T12:08:24;14.90;8.10
3136;DHT22;1578;47.658;9.922;2024-02-16T12:10:57;14.70;7.00
3136;DHT22;1578;47.658;9.922;2024-02-16T12:13:22;14.80;6.70
3136;DHT22;1578;47.658;9.922;2024-02-16T12:15:51;14.70;6.50
3136;DHT22;1578;47.658;9.922;2024-02-16T12:18:22;14.80;7.20
3136;DHT22;1578;47.658;9.922;2024-02-16T12:21:04;14.90;5.70
3136;DHT22;1578;47.658;9.922;2024-02-16T12:23:31;14.90;5.80
3136;DHT22;1578;47.658;9.922;2024-02-16T12:25:57;14.90;4.30
3136;DHT22;1578;47.658;9.922;2024-02-16T12:28:26;14.60;6.30
3136;DHT22;1578;47.658;9.922;2024-02-16T12:30:56;14.60;7.00
3136;DHT22;1578;47.658;9.922;2024-02-16T12:33:23;14.80;7.10
3136;DHT22;1578;47.658;9.922;2024-02-16T12:35:48;14.80;9.00
3136;DHT22;1578;47.658;9.922;2024-02-16T12:38:14;14.70;6.80
3136;DHT22;1578;47.658;9.922;2024-02-16T12:40:46;14.80;8.30
3136;DHT22;1578;47.658;9.922;2024-02-16T12:43:12;14.90;7.20
3136;DHT22;1578;47.658;9.922;2024-02-16T12:45:39;14.90;6.20
3136;DHT22;1578;47.658;9.922;2024-02-16T12:48:05;15.00;7.40
3136;DHT22;1578;47.658;9.922;2024-02-16T12:50:31;15.00;7.70
3136;DHT22;1578;47.658;9.922;2024-02-16T12:52:57;14.90;6.10
3136;DHT22;1578;47.658;9.922;2024-02-16T12:55:24;14.90;7.20
3136;DHT22;1578;47.658;9.922;2024-02-16T12:57:50;14.90;5.60
3136;DHT22;1578;47.658;9.922;2024-02-16T13:00:17;15.10;7.90
3136;DHT22;1578;47.658;9.922;2024-02-16T13:02:43;15.10;7.30
3136;DHT22;1578;47.658;9.922;2024-02-16T13:05:09;15.20;5.70
3136;DHT22;1578;47.658;9.922;2024-02-16T13:07:37;15.20;7.40
3136;DHT22;1578;47.658;9.922;2024-02-16T13:10:05;15.20;7.40
3136;DHT22;1578;47.658;9.922;2024-02-16T13:12:31;15.60;8.60
3136;DHT22;1578;47.658;9.922;2024-02-16T13:14:57;15.70;6.30
3136;DHT22;1578;47.658;9.922;2024-02-16T13:17:23;15.70;7.90
3136;DHT22;1578;47.658;9.922;2024-02-16T13:19:48;15.80;7.30
3136;DHT22;1578;47.658;9.922;2024-02-16T13:22:14;15.70;7.70
3136;DHT22;1578;47.658;9.922;2024-02-16T13:24:40;15.80;7.40
3136;DHT22;1578;47.658;9.922;2024-02-16T13:27:07;15.80;7.40
3136;DHT22;1578;47.658;9.922;2024-02-16T13:29:32;15.70;7.70
3136;DHT22;1578;47.658;9.922;2024-02-16T13:31:59;15.80;8.40
3136;DHT22;1578;47.658;9.922;2024-02-16T13:34:25;15.70;8.60
3136;DHT22;1578;47.658;9.922;2024-02-16T13:36:52;15.80;7.80
3136;DHT22;1578;47.658;9.922;2024-02-16T13:39:18;15.80;9.50
3136;DHT22;1578;47.658;9.922;2024-02-16T13:41:45;15.90;7.90
3136;DHT22;1578;47.658;9.922;2024-02-16T13:44:13;15.60;9.70
3136;DHT22;1578;47.658;9.922;2024-02-16T13:46:38;15.60;9.20
3136;DHT22;1578;47.658;9.922;2024-02-16T13:49:04;15.60;9.00
3136;DHT22;1578;47.658;9.922;2024-02-16T13:51:29;15.60;7.70
3136;DHT22;1578;47.658;9.922;2024-02-16T13:53:56;15.70;8.80
3136;DHT22;1578;47.658;9.922;2024-02-16T13:56:31;15.70;9.60
3136;DHT22;1578;47.658;9.922;2024-02-16T13:59:09;15.80;9.20
3136;DHT22;1578;47.658;9.922;2024-02-16T14:01:36;15.80;8.20
3136;DHT22;1578;47.658;9.922;2024-02-16T14:04:02;15.90;8.40
3136;DHT22;1578;47.658;9.922;2024-02-16T14:06:29;16.00;8.70
3136;DHT22;1578;47.658;9.922;2024-02-16T14:08:57;15.80;9.10
3136;DHT22;1578;47.658;9.922;2024-02-16T14:11:33;15.70;9.20
3136;DHT22;1578;47.658;9.922;2024-02-16T14:14:25;15.70;9.90
3136;DHT22;1578;47.658;9.922;2024-02-16T14:16:50;15.70;9.00
3136;DHT22;1578;47.658;9.922;2024-02-16T14:19:17;15.70;8.80
3136;DHT22;1578;47.658;9.922;2024-02-16T14:21:46;15.60;8.80
3136;DHT22;1578;47.658;9.922;2024-02-16T14:24:13;15.50;10.30
3136;DHT22;1578;47.658;9.922;2024-02-16T14:26:39;15.50;11.40
3136;DHT22;1578;47.658;9.922;2024-02-16T14:29:05;15.70;11.50
3136;DHT22;1578;47.658;9.922;2024-02-16T14:31:54;15.80;9.90
3136;DHT22;1578;47.658;9.922;2024-02-16T14:34:21;15.80;10.10
3136;DHT22;1578;47.658;9.922;2024-02-16T14:36:46;15.80;11.10
3136;DHT22;1578;47.658;9.922;2024-02-16T14:39:13;15.90;11.40
3136;DHT22;1578;47.658;9.922;2024-02-16T14:41:38;16.10;10.10
3136;DHT22;1578;47.658;9.922;2024-02-16T14:44:04;16.00;10.20
3136;DHT22;1578;47.658;9.922;2024-02-16T14:46:30;16.10;10.70
3136;DHT22;1578;47.658;9.922;2024-02-16T14:48:56;16.00;10.00
3136;DHT22;1578;47.658;9.922;2024-02-16T14:51:21;16.00;10.40
3136;DHT22;1578;47.658;9.922;2024-02-16T14:53:47;16.10;11.00
3136;DHT22;1578;47.658;9.922;2024-02-16T14:56:13;16.20;9.50
3136;DHT22;1578;47.658;9.922;2024-02-16T14:58:39;16.10;10.90
3136;DHT22;1578;47.658;9.922;2024-02-16T15:01:05;16.10;11.00
3136;DHT22;1578;47.658;9.922;2024-02-16T15:03:31;16.00;10.50
3136;DHT22;1578;47.658;9.922;2024-02-16T15:05:57;15.80;11.70
3136;DHT22;1578;47.658;9.922;2024-02-16T15:08:33;15.80;11.20
3136;DHT22;1578;47.658;9.922;2024-02-16T15:11:03;15.60;11.40
3136;DHT22;1578;47.658;9.922;2024-02-16T15:13:36;15.40;11.90
3136;DHT22;1578;47.658;9.922;2024-02-16T15:16:04;15.20;12.10
3136;DHT22;1578;47.658;9.922;2024-02-16T15:18:29;15.20;11.80
3136;DHT22;1578;47.658;9.922;2024-02-16T15:20:55;15.20;13.50
3136;DHT22;1578;47.658;9.922;2024-02-16T15:23:22;15.20;14.10
3136;DHT22;1578;47.658;9.922;2024-02-16T15:25:48;15.10;13.90
3136;DHT22;1578;47.658;9.922;2024-02-16T15:28:14;15.20;12.80
3136;DHT22;1578;47.658;9.922;2024-02-16T15:30:40;15.20;14.50
3136;DHT22;1578;47.658;9.922;2024-02-16T15:33:05;15.20;14.50
3136;DHT22;1578;47.658;9.922;2024-02-16T15:35:31;15.10;15.20
3136;DHT22;1578;47.658;9.922;2024-02-16T15:37:56;15.10;14.80
3136;DHT22;1578;47.658;9.922;2024-02-16T15:40:22;15.10;15.60
3136;DHT22;1578;47.658;9.922;2024-02-16T15:43:01;14.90;16.10
3136;DHT22;1578;47.658;9.922;2024-02-16T15:45:27;14.80;16.90
3136;DHT22;1578;47.658;9.922;2024-02-16T15:47:55;14.70;16.60
3136;DHT22;1578;47.658;9.922;2024-02-16T15:50:20;14.60;17.10
3136;DHT22;1578;47.658;9.922;2024-02-16T15:52:46;14.60;17.70
3136;DHT22;1578;47.658;9.922;2024-02-16T15:55:12;14.60;18.00
3136;DHT22;1578;47.658;9.922;2024-02-16T15:57:38;14.50;18.10
3136;DHT22;1578;47.658;9.922;2024-02-16T16:00:05;14.50;17.80
3136;DHT22;1578;47.658;9.922;2024-02-16T16:02:32;14.50;18.50
3136;DHT22;1578;47.658;9.922;2024-02-16T16:04:58;14.40;18.50
3136;DHT22;1578;47.658;9.922;2024-02-16T16:07:23;14.40;19.30
3136;DHT22;1578;47.658;9.922;2024-02-16T16:09:55;14.30;19.10
3136;DHT22;1578;47.658;9.922;2024-02-16T16:12:20;14.20;19.10
3136;DHT22;1578;47.658;9.922;2024-02-16T16:14:46;14.10;19.20
3136;DHT22;1578;47.658;9.922;2024-02-16T16:17:12;14.00;19.40